sensor_id;sensor_type;location;lat;lon;timestamp;pressure;altitude;pressure_sealevel;temperature
45393;BMP280;31129;44.810;10.334;2023-12-29T00:01:45;101539.91;;;10.64
45393;BMP280;31129;44.810;10.334;2023-12-29T00:04:11;101542.63;;;10.64
45393;BMP280;31129;44.810;10.334;2023-12-29T00:06:40;101547.22;;;10.67
45393;BMP280;31129;44.810;10.334;2023-12-29T00:09:06;101545.69;;;10.66
45393;BMP280;31129;44.810;10.334;2023-12-29T00:11:32;101546.56;;;10.63
45393;BMP280;31129;44.810;10.334;2023-12-29T00:13:58;101552.47;;;10.62
45393;BMP280;31129;44.810;10.334;2023-12-29T00:16:24;101544.88;;;10.57
45393;BMP280;31129;44.810;10.334;2023-12-29T00:18:49;101537.00;;;10.59
45393;BMP280;31129;44.810;10.334;2023-12-29T00:21:15;101553.88;;;10.66
45393;BMP280;31129;44.810;10.334;2023-12-29T00:23:40;101546.31;;;10.71
45393;BMP280;31129;44.810;10.334;2023-12-29T00:26:06;101540.56;;;10.68
45393;BMP280;31129;44.810;10.334;2023-12-29T00:28:31;101541.88;;;10.64
45393;BMP280;31129;44.810;10.334;2023-12-29T00:30:57;101534.44;;;10.64
45393;BMP280;31129;44.810;10.334;2023-12-29T00:33:24;101538.53;;;10.60
45393;BMP280;31129;44.810;10.334;2023-12-29T00:35:50;101545.63;;;10.57
45393;BMP280;31129;44.810;10.334;2023-12-29T00:38:15;101536.84;;;10.62
45393;BMP280;31129;44.810;10.334;2023-12-29T00:40:41;101543.53;;;10.61
45393;BMP280;31129;44.810;10.334;2023-12-29T00:43:06;101541.69;;;10.58
45393;BMP280;31129;44.810;10.334;2023-12-29T00:45:32;101536.69;;;10.57
45393;BMP280;31129;44.810;10.334;2023-12-29T00:48:02;101540.56;;;10.68
45393;BMP280;31129;44.810;10.334;2023-12-29T00:50:27;101542.06;;;10.69
45393;BMP280;31129;44.810;10.334;2023-12-29T00:52:53;101547.47;;;10.60
45393;BMP280;31129;44.810;10.334;2023-12-29T00:55:19;101549.56;;;10.56
45393;BMP280;31129;44.810;10.334;2023-12-29T00:57:44;101552.69;;;10.67
45393;BMP280;31129;44.810;10.334;2023-12-29T01:00:12;101550.59;;;10.72
45393;BMP280;31129;44.810;10.334;2023-12-29T01:02:38;101550.25;;;10.69
45393;BMP280;31129;44.810;10.334;2023-12-29T01:05:05;101549.50;;;10.69
45393;BMP280;31129;44.810;10.334;2023-12-29T01:07:31;101547.47;;;10.60
45393;BMP280;31129;44.810;10.334;2023-12-29T01:09:56;101543.75;;;10.54
45393;BMP280;31129;44.810;10.334;2023-12-29T01:12:22;101551.94;;;10.54
45393;BMP280;31129;44.810;10.334;2023-12-29T01:17:32;101555.78;;;10.57
45393;BMP280;31129;44.810;10.334;2023-12-29T01:19:57;101548.38;;;10.57
45393;BMP280;31129;44.810;10.334;2023-12-29T01:22:23;101537.09;;;10.55
45393;BMP280;31129;44.810;10.334;2023-12-29T01:24:48;101546.06;;;10.56
45393;BMP280;31129;44.810;10.334;2023-12-29T01:27:14;101549.31;;;10.63
45393;BMP280;31129;44.810;10.334;2023-12-29T01:29:39;101545.63;;;10.57
45393;BMP280;31129;44.810;10.334;2023-12-29T01:32:05;101541.94;;;10.51
45393;BMP280;31129;44.810;10.334;2023-12-29T01:34:33;101549.63;;;10.44
45393;BMP280;31129;44.810;10.334;2023-12-29T01:36:59;101541.59;;;10.49
45393;BMP280;31129;44.810;10.334;2023-12-29T01:39:25;101540.19;;;10.57
45393;BMP280;31129;44.810;10.334;2023-12-29T01:41:50;101534.50;;;10.52
45393;BMP280;31129;44.810;10.334;2023-12-29T01:44:20;101533.41;;;10.49
45393;BMP280;31129;44.810;10.334;2023-12-29T01:46:49;101531.63;;;10.55
45393;BMP280;31129;44.810;10.334;2023-12-29T01:49:17;101534.03;;;10.53
45393;BMP280;31129;44.810;10.334;2023-12-29T01:51:48;101533.75;;;10.51
45393;BMP280;31129;44.810;10.334;2023-12-29T01:54:14;101525.25;;;10.49
45393;BMP280;31129;44.810;10.334;2023-12-29T01:56:40;101523.38;;;10.46
45393;BMP280;31129;44.810;10.334;2023-12-29T01:59:06;101524.47;;;10.49
45393;BMP280;31129;44.810;10.334;2023-12-29T02:01:32;101532.53;;;10.52
45393;BMP280;31129;44.810;10.334;2023-12-29T02:03:57;101529.94;;;10.49
45393;BMP280;31129;44.810;10.334;2023-12-29T02:06:24;101517.13;;;10.58
45393;BMP280;31129;44.810;10.334;2023-12-29T02:08:51;101519.53;;;10.56
45393;BMP280;31129;44.810;10.334;2023-12-29T02:11:17;101516.38;;;10.58
45393;BMP280;31129;44.810;10.334;2023-12-29T02:13:42;101513.44;;;10.52
45393;BMP280;31129;44.810;10.334;2023-12-29T02:16:23;101511.44;;;10.53
45393;BMP280;31129;44.810;10.334;2023-12-29T02:18:53;101504.50;;;10.52
45393;BMP280;31129;44.810;10.334;2023-12-29T02:21:23;101500.84;;;10.55
45393;BMP280;31129;44.810;10.334;2023-12-29T02:23:50;101496.75;;;10.50
45393;BMP280;31129;44.810;10.334;2023-12-29T02:26:16;101484.16;;;10.53
45393;BMP280;31129;44.810;10.334;2023-12-29T02:28:47;101486.44;;;10.54
45393;BMP280;31129;44.810;10.334;2023-12-29T02:31:20;101487.44;;;10.60
45393;BMP280;31129;44.810;10.334;2023-12-29T02:33:48;101492.91;;;10.60
45393;BMP280;31129;44.810;10.334;2023-12-29T02:36:16;101485.50;;;10.70
45393;BMP280;31129;44.810;10.334;2023-12-29T02:38:42;101479.50;;;10.75
45393;BMP280;31129;44.810;10.334;2023-12-29T02:41:07;101480.72;;;10.74
45393;BMP280;31129;44.810;10.334;2023-12-29T02:43:33;101477.81;;;10.78
45393;BMP280;31129;44.810;10.334;2023-12-29T02:45:59;101478.78;;;10.84
45393;BMP280;31129;44.810;10.334;2023-12-29T02:48:25;101482.28;;;10.84
45393;BMP280;31129;44.810;10.334;2023-12-29T02:50:50;101472.56;;;10.83
45393;BMP280;31129;44.810;10.334;2023-12-29T02:53:16;101471.66;;;10.86
45393;BMP280;31129;44.810;10.334;2023-12-29T02:55:41;101466.22;;;10.86
45393;BMP280;31129;44.810;10.334;2023-12-29T02:58:08;101470.16;;;10.85
45393;BMP280;31129;44.810;10.334;2023-12-29T03:00:34;101460.47;;;10.93
45393;BMP280;31129;44.810;10.334;2023-12-29T03:03:00;101466.69;;;10.94
45393;BMP280;31129;44.810;10.334;2023-12-29T03:05:25;101454.50;;;10.86
45393;BMP280;31129;44.810;10.334;2023-12-29T03:07:51;101450.28;;;10.85
45393;BMP280;31129;44.810;10.334;2023-12-29T03:10:17;101454.50;;;10.86
45393;BMP280;31129;44.810;10.334;2023-12-29T03:12:42;101442.84;;;10.85
45393;BMP280;31129;44.810;10.334;2023-12-29T03:15:08;101435.75;;;10.88
45393;BMP280;31129;44.810;10.334;2023-12-29T03:17:34;101436.81;;;10.90
45393;BMP280;31129;44.810;10.334;2023-12-29T03:20:01;101439.25;;;10.97
45393;BMP280;31129;44.810;10.334;2023-12-29T03:22:26;101437.59;;;11.00
45393;BMP280;31129;44.810;10.334;2023-12-29T03:24:52;101429.84;;;10.98
45393;BMP280;31129;44.810;10.334;2023-12-29T03:27:17;101424.28;;;11.02
45393;BMP280;31129;44.810;10.334;2023-12-29T03:29:43;101422.88;;;10.97
45393;BMP280;31129;44.810;10.334;2023-12-29T03:32:08;101421.34;;;10.96
45393;BMP280;31129;44.810;10.334;2023-12-29T03:34:34;101410.16;;;11.03
45393;BMP280;31129;44.810;10.334;2023-12-29T03:36:59;101406.53;;;11.07
45393;BMP280;31129;44.810;10.334;2023-12-29T03:39:25;101409.59;;;11.09
45393;BMP280;31129;44.810;10.334;2023-12-29T03:41:50;101413.06;;;11.09
45393;BMP280;31129;44.810;10.334;2023-12-29T03:44:16;101407.75;;;11.06
45393;BMP280;31129;44.810;10.334;2023-12-29T03:46:43;101398.94;;;11.11
45393;BMP280;31129;44.810;10.334;2023-12-29T03:49:08;101400.47;;;11.12
45393;BMP280;31129;44.810;10.334;2023-12-29T03:51:34;101401.22;;;11.12
45393;BMP280;31129;44.810;10.334;2023-12-29T03:54:00;101398.06;;;11.14
45393;BMP280;31129;44.810;10.334;2023-12-29T03:56:26;101389.41;;;11.15
45393;BMP280;31129;44.810;10.334;2023-12-29T03:58:52;101393.53;;;11.20
45393;BMP280;31129;44.810;10.334;2023-12-29T04:01:17;101382.47;;;11.23
45393;BMP280;31129;44.810;10.334;2023-12-29T04:03:45;101380.03;;;11.25
45393;BMP280;31129;44.810;10.334;2023-12-29T04:06:11;101384.28;;;11.26
45393;BMP280;31129;44.810;10.334;2023-12-29T04:08:38;101379.25;;;11.25
45393;BMP280;31129;44.810;10.334;2023-12-29T04:11:04;101373.34;;;11.26
45393;BMP280;31129;44.810;10.334;2023-12-29T04:13:30;101368.19;;;11.28
45393;BMP280;31129;44.810;10.334;2023-12-29T04:15:56;101372.13;;;11.27
45393;BMP280;31129;44.810;10.334;2023-12-29T04:18:23;101362.28;;;11.30
45393;BMP280;31129;44.810;10.334;2023-12-29T04:20:49;101365.94;;;11.36
45393;BMP280;31129;44.810;10.334;2023-12-29T04:23:15;101363.06;;;11.39
45393;BMP280;31129;44.810;10.334;2023-12-29T04:25:41;101362.75;;;11.37
45393;BMP280;31129;44.810;10.334;2023-12-29T04:28:07;101353.03;;;11.36
45393;BMP280;31129;44.810;10.334;2023-12-29T04:30:33;101353.19;;;11.42
45393;BMP280;31129;44.810;10.334;2023-12-29T04:32:59;101356.69;;;11.43
45393;BMP280;31129;44.810;10.334;2023-12-29T04:35:25;101361.56;;;11.48
45393;BMP280;31129;44.810;10.334;2023-12-29T04:37:50;101360.50;;;11.45
45393;BMP280;31129;44.810;10.334;2023-12-29T04:40:16;101361.56;;;11.48
45393;BMP280;31129;44.810;10.334;2023-12-29T04:42:42;101366.56;;;11.49
45393;BMP280;31129;44.810;10.334;2023-12-29T04:45:08;101359.28;;;11.46
45393;BMP280;31129;44.810;10.334;2023-12-29T04:47:34;101360.22;;;11.52
45393;BMP280;31129;44.810;10.334;2023-12-29T04:49:59;101348.66;;;11.48
45393;BMP280;31129;44.810;10.334;2023-12-29T04:52:25;101351.25;;;11.52
45393;BMP280;31129;44.810;10.334;2023-12-29T04:54:50;101354.75;;;11.52
45393;BMP280;31129;44.810;10.334;2023-12-29T04:57:16;101359.00;;;11.53
45393;BMP280;31129;44.810;10.334;2023-12-29T04:59:41;101353.81;;;11.55
45393;BMP280;31129;44.810;10.334;2023-12-29T05:02:07;101352.78;;;11.53
45393;BMP280;31129;44.810;10.334;2023-12-29T05:04:32;101353.03;;;11.55
45393;BMP280;31129;44.810;10.334;2023-12-29T05:06:58;101353.34;;;11.57
45393;BMP280;31129;44.810;10.334;2023-12-29T05:09:24;101346.38;;;11.56
45393;BMP280;31129;44.810;10.334;2023-12-29T05:11:49;101349.28;;;11.52
45393;BMP280;31129;44.810;10.334;2023-12-29T05:14:15;101353.03;;;11.55
45393;BMP280;31129;44.810;10.334;2023-12-29T05:16:44;101352.31;;;11.54
45393;BMP280;31129;44.810;10.334;2023-12-29T05:19:09;101353.97;;;11.52
45393;BMP280;31129;44.810;10.334;2023-12-29T05:21:35;101347.13;;;11.56
45393;BMP280;31129;44.810;10.334;2023-12-29T05:24:00;101353.06;;;11.64
45393;BMP280;31129;44.810;10.334;2023-12-29T05:26:26;101351.69;;;11.59
45393;BMP280;31129;44.810;10.334;2023-12-29T05:28:51;101361.09;;;11.58
45393;BMP280;31129;44.810;10.334;2023-12-29T05:31:17;101363.06;;;11.58
45393;BMP280;31129;44.810;10.334;2023-12-29T05:33:44;101355.19;;;11.51
45393;BMP280;31129;44.810;10.334;2023-12-29T05:36:10;101368.84;;;11.51
45393;BMP280;31129;44.810;10.334;2023-12-29T05:38:39;101366.09;;;11.42
45393;BMP280;31129;44.810;10.334;2023-12-29T05:41:06;101379.00;;;11.41
45393;BMP280;31129;44.810;10.334;2023-12-29T05:43:33;101378.41;;;11.37
45393;BMP280;31129;44.810;10.334;2023-12-29T05:46:00;101379.56;;;11.27
45393;BMP280;31129;44.810;10.334;2023-12-29T05:48:26;101372.31;;;11.24
45393;BMP280;31129;44.810;10.334;2023-12-29T05:50:51;101382.13;;;11.12
45393;BMP280;31129;44.810;10.334;2023-12-29T05:53:17;101387.69;;;10.99
45393;BMP280;31129;44.810;10.334;2023-12-29T05:55:43;101387.97;;;10.92
45393;BMP280;31129;44.810;10.334;2023-12-29T05:58:09;101391.09;;;10.82
45393;BMP280;31129;44.810;10.334;2023-12-29T06:00:38;101386.97;;;10.77
45393;BMP280;31129;44.810;10.334;2023-12-29T06:03:07;101394.66;;;10.69
45393;BMP280;31129;44.810;10.334;2023-12-29T06:05:32;101387.06;;;10.64
45393;BMP280;31129;44.810;10.334;2023-12-29T06:07:58;101396.88;;;10.84
45393;BMP280;31129;44.810;10.334;2023-12-29T06:10:24;101390.88;;;10.67
45393;BMP280;31129;44.810;10.334;2023-12-29T06:12:49;101387.97;;;10.61
45393;BMP280;31129;44.810;10.334;2023-12-29T06:15:15;101396.03;;;10.65
45393;BMP280;31129;44.810;10.334;2023-12-29T06:17:41;101386.25;;;10.55
45393;BMP280;31129;44.810;10.334;2023-12-29T06:20:08;101391.16;;;10.60
45393;BMP280;31129;44.810;10.334;2023-12-29T06:22:41;101405.97;;;10.81
45393;BMP280;31129;44.810;10.334;2023-12-29T06:25:11;101404.38;;;10.71
45393;BMP280;31129;44.810;10.334;2023-12-29T06:27:37;101399.88;;;10.55
45393;BMP280;31129;44.810;10.334;2023-12-29T06:30:07;101388.50;;;10.47
45393;BMP280;31129;44.810;10.334;2023-12-29T06:32:34;101398.38;;;10.54
45393;BMP280;31129;44.810;10.334;2023-12-29T06:34:59;101392.13;;;10.44
45393;BMP280;31129;44.810;10.334;2023-12-29T06:37:25;101394.19;;;10.62
45393;BMP280;31129;44.810;10.334;2023-12-29T06:39:51;101403.06;;;10.44
45393;BMP280;31129;44.810;10.334;2023-12-29T06:42:16;101396.06;;;10.43
45393;BMP280;31129;44.810;10.334;2023-12-29T06:44:42;101403.22;;;10.50
45393;BMP280;31129;44.810;10.334;2023-12-29T06:47:07;101402.22;;;10.56
45393;BMP280;31129;44.810;10.334;2023-12-29T06:49:35;101393.25;;;10.56
45393;BMP280;31129;44.810;10.334;2023-12-29T06:52:01;101386.25;;;10.55
45393;BMP280;31129;44.810;10.334;2023-12-29T06:54:26;101396.47;;;10.63
45393;BMP280;31129;44.810;10.334;2023-12-29T06:56:52;101386.69;;;10.53
45393;BMP280;31129;44.810;10.334;2023-12-29T06:59:17;101402.91;;;10.48
45393;BMP280;31129;44.810;10.334;2023-12-29T07:01:45;101404.88;;;10.47
45393;BMP280;31129;44.810;10.334;2023-12-29T07:04:11;101388.56;;;10.56
45393;BMP280;31129;44.810;10.334;2023-12-29T07:06:37;101393.41;;;10.61
45393;BMP280;31129;44.810;10.334;2023-12-29T07:09:03;101398.75;;;10.65
45393;BMP280;31129;44.810;10.334;2023-12-29T07:11:29;101400.13;;;10.69
45393;BMP280;31129;44.810;10.334;2023-12-29T07:13:55;101400.59;;;10.68
45393;BMP280;31129;44.810;10.334;2023-12-29T07:16:20;101402.13;;;10.69
45393;BMP280;31129;44.810;10.334;2023-12-29T07:18:46;101408.81;;;10.77
45393;BMP280;31129;44.810;10.334;2023-12-29T07:21:12;101413.06;;;10.78
45393;BMP280;31129;44.810;10.334;2023-12-29T07:23:40;101415.03;;;10.78
45393;BMP280;31129;44.810;10.334;2023-12-29T07:26:06;101420.97;;;10.76
45393;BMP280;31129;44.810;10.334;2023-12-29T07:28:32;101419.00;;;10.77
45393;BMP280;31129;44.810;10.334;2023-12-29T07:30:57;101432.78;;;10.73
45393;BMP280;31129;44.810;10.334;2023-12-29T07:33:23;101436.75;;;10.81
45393;BMP280;31129;44.810;10.334;2023-12-29T07:35:49;101435.81;;;10.75
45393;BMP280;31129;44.810;10.334;2023-12-29T07:38:15;101436.63;;;10.85
45393;BMP280;31129;44.810;10.334;2023-12-29T07:40:41;101442.66;;;10.80
45393;BMP280;31129;44.810;10.334;2023-12-29T07:43:07;101446.09;;;10.93
45393;BMP280;31129;44.810;10.334;2023-12-29T07:45:34;101452.16;;;10.97
45393;BMP280;31129;44.810;10.334;2023-12-29T07:48:02;101454.88;;;10.97
45393;BMP280;31129;44.810;10.334;2023-12-29T07:50:27;101452.47;;;10.99
45393;BMP280;31129;44.810;10.334;2023-12-29T07:52:53;101457.66;;;11.06
45393;BMP280;31129;44.810;10.334;2023-12-29T07:55:18;101456.03;;;11.09
45393;BMP280;31129;44.810;10.334;2023-12-29T07:57:44;101454.66;;;11.13
45393;BMP280;31129;44.810;10.334;2023-12-29T08:00:12;101461.75;;;11.11
45393;BMP280;31129;44.810;10.334;2023-12-29T08:02:38;101462.09;;;11.13
45393;BMP280;31129;44.810;10.334;2023-12-29T08:05:04;101449.81;;;11.17
45393;BMP280;31129;44.810;10.334;2023-12-29T08:07:29;101450.59;;;11.27
45393;BMP280;31129;44.810;10.334;2023-12-29T08:09:54;101452.00;;;11.41
45393;BMP280;31129;44.810;10.334;2023-12-29T08:12:20;101456.25;;;11.32
45393;BMP280;31129;44.810;10.334;2023-12-29T08:14:45;101462.47;;;11.24
45393;BMP280;31129;44.810;10.334;2023-12-29T08:17:11;101463.06;;;11.28
45393;BMP280;31129;44.810;10.334;2023-12-29T08:19:38;101462.94;;;11.31
45393;BMP280;31129;44.810;10.334;2023-12-29T08:22:03;101470.19;;;11.25
45393;BMP280;31129;44.810;10.334;2023-12-29T08:24:28;101459.56;;;11.27
45393;BMP280;31129;44.810;10.334;2023-12-29T08:26:54;101471.31;;;11.37
45393;BMP280;31129;44.810;10.334;2023-12-29T08:29:19;101471.25;;;11.28
45393;BMP280;31129;44.810;10.334;2023-12-29T08:31:46;101468.97;;;11.26
45393;BMP280;31129;44.810;10.334;2023-12-29T08:34:12;101474.88;;;11.25
45393;BMP280;31129;44.810;10.334;2023-12-29T08:36:37;101484.00;;;11.22
45393;BMP280;31129;44.810;10.334;2023-12-29T08:39:03;101481.06;;;11.16
45393;BMP280;31129;44.810;10.334;2023-12-29T08:41:28;101480.00;;;11.14
45393;BMP280;31129;44.810;10.334;2023-12-29T08:43:54;101482.03;;;11.22
45393;BMP280;31129;44.810;10.334;2023-12-29T08:46:20;101480.31;;;11.16
45393;BMP280;31129;44.810;10.334;2023-12-29T08:48:46;101475.34;;;11.23
45393;BMP280;31129;44.810;10.334;2023-12-29T08:51:11;101479.56;;;11.15
45393;BMP280;31129;44.810;10.334;2023-12-29T08:53:37;101480.94;;;11.20
45393;BMP280;31129;44.810;10.334;2023-12-29T08:56:03;101481.56;;;11.24
45393;BMP280;31129;44.810;10.334;2023-12-29T08:58:29;101489.81;;;11.33
45393;BMP280;31129;44.810;10.334;2023-12-29T09:00:55;101486.72;;;11.22
45393;BMP280;31129;44.810;10.334;2023-12-29T09:03:20;101491.13;;;11.28
45393;BMP280;31129;44.810;10.334;2023-12-29T09:05:46;101488.91;;;11.36
45393;BMP280;31129;44.810;10.334;2023-12-29T09:08:11;101499.97;;;11.32
45393;BMP280;31129;44.810;10.334;2023-12-29T09:10:37;101491.31;;;11.34
45393;BMP280;31129;44.810;10.334;2023-12-29T09:13:04;101489.66;;;11.36
45393;BMP280;31129;44.810;10.334;2023-12-29T09:15:29;101481.16;;;11.34
45393;BMP280;31129;44.810;10.334;2023-12-29T09:17:55;101498.78;;;11.43
45393;BMP280;31129;44.810;10.334;2023-12-29T09:20:20;101488.91;;;11.36
45393;BMP280;31129;44.810;10.334;2023-12-29T09:22:46;101502.13;;;11.37
45393;BMP280;31129;44.810;10.334;2023-12-29T09:25:11;101503.59;;;11.29
45393;BMP280;31129;44.810;10.334;2023-12-29T09:27:37;101503.72;;;11.26
45393;BMP280;31129;44.810;10.334;2023-12-29T09:30:03;101505.56;;;11.29
45393;BMP280;31129;44.810;10.334;2023-12-29T09:32:30;101507.28;;;11.35
45393;BMP280;31129;44.810;10.334;2023-12-29T09:34:55;101507.88;;;11.39
45393;BMP280;31129;44.810;10.334;2023-12-29T09:37:22;101516.25;;;11.45
45393;BMP280;31129;44.810;10.334;2023-12-29T09:39:47;101516.59;;;11.47
45393;BMP280;31129;44.810;10.334;2023-12-29T09:42:21;101497.25;;;11.42
45393;BMP280;31129;44.810;10.334;2023-12-29T09:44:50;101503.69;;;11.57
45393;BMP280;31129;44.810;10.334;2023-12-29T09:47:21;101510.22;;;11.59
45393;BMP280;31129;44.810;10.334;2023-12-29T09:49:49;101499.41;;;11.47
45393;BMP280;31129;44.810;10.334;2023-12-29T09:52:16;101518.84;;;11.49
45393;BMP280;31129;44.810;10.334;2023-12-29T09:54:42;101521.69;;;11.36
45393;BMP280;31129;44.810;10.334;2023-12-29T09:57:09;101520.06;;;11.48
45393;BMP280;31129;44.810;10.334;2023-12-29T09:59:35;101504.13;;;11.55
45393;BMP280;31129;44.810;10.334;2023-12-29T10:02:04;101508.53;;;11.62
45393;BMP280;31129;44.810;10.334;2023-12-29T10:04:30;101494.25;;;11.49
45393;BMP280;31129;44.810;10.334;2023-12-29T10:06:56;101493.69;;;11.54
45393;BMP280;31129;44.810;10.334;2023-12-29T10:09:24;101493.53;;;11.57
45393;BMP280;31129;44.810;10.334;2023-12-29T10:11:51;101495.81;;;11.59
45393;BMP280;31129;44.810;10.334;2023-12-29T10:14:24;101496.75;;;11.65
45393;BMP280;31129;44.810;10.334;2023-12-29T10:17:01;101485.50;;;11.63
45393;BMP280;31129;44.810;10.334;2023-12-29T10:19:41;101491.22;;;11.56
45393;BMP280;31129;44.810;10.334;2023-12-29T10:22:30;101489.72;;;11.55
45393;BMP280;31129;44.810;10.334;2023-12-29T10:24:58;101484.09;;;11.58
45393;BMP280;31129;44.810;10.334;2023-12-29T10:27:25;101476.66;;;11.50
45393;BMP280;31129;44.810;10.334;2023-12-29T10:29:52;101483.97;;;11.53
45393;BMP280;31129;44.810;10.334;2023-12-29T10:32:17;101477.88;;;11.58
45393;BMP280;31129;44.810;10.334;2023-12-29T10:34:43;101482.75;;;11.63
45393;BMP280;31129;44.810;10.334;2023-12-29T10:37:08;101474.69;;;11.50
45393;BMP280;31129;44.810;10.334;2023-12-29T10:39:39;101471.81;;;11.54
45393;BMP280;31129;44.810;10.334;2023-12-29T10:42:08;101471.06;;;11.53
45393;BMP280;31129;44.810;10.334;2023-12-29T10:44:35;101470.00;;;11.60
45393;BMP280;31129;44.810;10.334;2023-12-29T10:47:08;101465.78;;;11.68
45393;BMP280;31129;44.810;10.334;2023-12-29T10:49:34;101462.28;;;11.67
45393;BMP280;31129;44.810;10.334;2023-12-29T10:51:59;101467.75;;;11.67
45393;BMP280;31129;44.810;10.334;2023-12-29T10:54:25;101469.56;;;11.70
45393;BMP280;31129;44.810;10.334;2023-12-29T10:57:02;101457.84;;;11.61
45393;BMP280;31129;44.810;10.334;2023-12-29T10:59:33;101454.38;;;11.69
45393;BMP280;31129;44.810;10.334;2023-12-29T11:02:01;101443.28;;;11.73
45393;BMP280;31129;44.810;10.334;2023-12-29T11:04:28;101448.31;;;11.74
45393;BMP280;31129;44.810;10.334;2023-12-29T11:06:54;101450.13;;;11.68
45393;BMP280;31129;44.810;10.334;2023-12-29T11:09:33;101443.72;;;11.62
45393;BMP280;31129;44.810;10.334;2023-12-29T11:12:03;101440.41;;;11.77
45393;BMP280;31129;44.810;10.334;2023-12-29T11:14:29;101432.19;;;11.86
45393;BMP280;31129;44.810;10.334;2023-12-29T11:16:56;101430.09;;;11.81
45393;BMP280;31129;44.810;10.334;2023-12-29T11:19:22;101430.97;;;11.78
45393;BMP280;31129;44.810;10.334;2023-12-29T11:21:52;101422.03;;;11.86
45393;BMP280;31129;44.810;10.334;2023-12-29T11:24:19;101428.13;;;11.81
45393;BMP280;31129;44.810;10.334;2023-12-29T11:26:45;101424.63;;;11.81
45393;BMP280;31129;44.810;10.334;2023-12-29T11:29:11;101431.63;;;11.82
45393;BMP280;31129;44.810;10.334;2023-12-29T11:31:38;101421.13;;;11.80
45393;BMP280;31129;44.810;10.334;2023-12-29T11:34:34;101410.19;;;11.89
45393;BMP280;31129;44.810;10.334;2023-12-29T11:40:19;101405.47;;;11.71
45393;BMP280;31129;44.810;10.334;2023-12-29T11:42:49;101411.53;;;11.76
45393;BMP280;31129;44.810;10.334;2023-12-29T11:47:51;101402.41;;;11.60
45393;BMP280;31129;44.810;10.334;2023-12-29T11:50:38;101393.31;;;11.54
45393;BMP280;31129;44.810;10.334;2023-12-29T11:53:06;101389.69;;;11.66
45393;BMP280;31129;44.810;10.334;2023-12-29T11:55:37;101383.13;;;11.64
45393;BMP280;31129;44.810;10.334;2023-12-29T11:58:04;101376.91;;;11.63
45393;BMP280;31129;44.810;10.334;2023-12-29T12:00:50;101384.03;;;11.61
45393;BMP280;31129;44.810;10.334;2023-12-29T12:03:26;101376.75;;;11.49
45393;BMP280;31129;44.810;10.334;2023-12-29T12:05:53;101370.97;;;11.47
45393;BMP280;31129;44.810;10.334;2023-12-29T12:08:28;101379.00;;;11.41
45393;BMP280;31129;44.810;10.334;2023-12-29T12:10:54;101378.41;;;11.46
45393;BMP280;31129;44.810;10.334;2023-12-29T12:13:45;101380.81;;;11.44
45393;BMP280;31129;44.810;10.334;2023-12-29T12:19:08;101366.56;;;11.49
45393;BMP280;31129;44.810;10.334;2023-12-29T12:21:35;101358.38;;;11.49
45393;BMP280;31129;44.810;10.334;2023-12-29T12:24:03;101360.22;;;11.52
45393;BMP280;31129;44.810;10.334;2023-12-29T12:26:30;101350.31;;;11.46
45393;BMP280;31129;44.810;10.334;2023-12-29T12:28:56;101348.22;;;11.50
45393;BMP280;31129;44.810;10.334;2023-12-29T12:31:21;101345.94;;;11.48
45393;BMP280;31129;44.810;10.334;2023-12-29T12:33:54;101343.34;;;11.45
45393;BMP280;31129;44.810;10.334;2023-12-29T12:36:21;101336.34;;;11.44
45393;BMP280;31129;44.810;10.334;2023-12-29T12:38:56;101335.75;;;11.49
45393;BMP280;31129;44.810;10.334;2023-12-29T12:41:23;101338.47;;;11.49
45393;BMP280;31129;44.810;10.334;2023-12-29T12:44:04;101334.69;;;11.46
45393;BMP280;31129;44.810;10.334;2023-12-29T12:46:40;101335.59;;;11.52
45393;BMP280;31129;44.810;10.334;2023-12-29T12:49:07;101317.69;;;11.60
45393;BMP280;31129;44.810;10.334;2023-12-29T12:51:33;101318.44;;;11.61
45393;BMP280;31129;44.810;10.334;2023-12-29T12:53:59;101321.47;;;11.63
45393;BMP280;31129;44.810;10.334;2023-12-29T12:56:25;101316.44;;;11.70
45393;BMP280;31129;44.810;10.334;2023-12-29T12:58:57;101315.09;;;11.66
45393;BMP280;31129;44.810;10.334;2023-12-29T13:01:24;101314.81;;;11.64
45393;BMP280;31129;44.810;10.334;2023-12-29T13:03:50;101311.59;;;11.74
45393;BMP280;31129;44.810;10.334;2023-12-29T13:06:16;101321.78;;;11.74
45393;BMP280;31129;44.810;10.334;2023-12-29T13:08:43;101311.59;;;11.74
45393;BMP280;31129;44.810;10.334;2023-12-29T13:11:09;101310.06;;;11.73
45393;BMP280;31129;44.810;10.334;2023-12-29T13:13:38;101309.63;;;11.75
45393;BMP280;31129;44.810;10.334;2023-12-29T13:16:04;101304.78;;;11.79
45393;BMP280;31129;44.810;10.334;2023-12-29T13:18:29;101303.84;;;11.82
45393;BMP280;31129;44.810;10.334;2023-12-29T13:20:57;101308.25;;;11.80
45393;BMP280;31129;44.810;10.334;2023-12-29T13:23:26;101309.63;;;11.75
45393;BMP280;31129;44.810;10.334;2023-12-29T13:26:12;101308.41;;;11.76
45393;BMP280;31129;44.810;10.334;2023-12-29T13:28:38;101305.19;;;11.78
45393;BMP280;31129;44.810;10.334;2023-12-29T13:31:04;101308.09;;;11.83
45393;BMP280;31129;44.810;10.334;2023-12-29T13:33:47;101313.72;;;11.80
45393;BMP280;31129;44.810;10.334;2023-12-29T13:38:53;101319.19;;;11.80
45393;BMP280;31129;44.810;10.334;2023-12-29T13:41:21;101318.72;;;11.72
45393;BMP280;31129;44.810;10.334;2023-12-29T13:43:48;101314.34;;;11.65
45393;BMP280;31129;44.810;10.334;2023-12-29T13:46:16;101306.91;;;11.66
45393;BMP280;31129;44.810;10.334;2023-12-29T13:48:42;101320.56;;;11.66
45393;BMP280;31129;44.810;10.334;2023-12-29T13:51:09;101303.41;;;11.65
45393;BMP280;31129;44.810;10.334;2023-12-29T13:53:35;101291.09;;;11.70
45393;BMP280;31129;44.810;10.334;2023-12-29T13:56:10;101297.81;;;11.69
45393;BMP280;31129;44.810;10.334;2023-12-29T13:58:36;101293.53;;;11.59